CW5775 Weather Reports


Display with metric or nautical units.
time (UTC)temp
F
wind
direction
speed
MPH
gust
MPH
rain 1hr
in
rain 24hr
in
rain mn
in
humidity
%
barometer
mb
20220529111541 62 257 0.0 0.0 0.00 0.00 0.00 87 1013.9
20220529111348 62 28 1.0 2.0 0.00 0.01 0.00 88 1013.8
20220529110350 61 27 1.0 2.0 0.00 0.01 0.00 90 1013.8
20220529110035 60 27 0.0 0.0 0.00 0.00 0.00 90 1013.7
20220529105351 61 27 0.0 0.0 0.00 0.01 0.00 90 1013.7
20220529104515 60 27 0.0 0.0 0.00 0.00 0.00 89 1013.4
20220529104352 60 27 0.0 0.0 0.00 0.01 0.00 89 1013.5
20220529103354 60 27 0.0 0.0 0.00 0.01 0.00 89 1013.5
20220529103104 59 27 0.0 0.0 0.00 0.00 0.00 89 1013.4
20220529102353 60 16 0.0 0.0 0.00 0.01 0.00 88 1013.4
20220529101539 59 21 0.0 0.0 0.00 0.00 0.00 88 1013.2
20220529101335 60 21 0.0 0.0 0.00 0.01 0.00 88 1013.1
20220529100337 60 21 0.0 1.0 0.00 0.01 0.00 87 1013.1
20220529100039 60 21 0.0 0.0 0.00 0.00 0.00 87 1013.0
20220529095336 60 21 0.0 0.0 0.00 0.01 0.00 87 1013.0
20220529094504 60 21 0.0 0.0 0.00 0.00 0.00 85 1012.8
20220529094336 61 21 0.0 0.0 0.00 0.01 0.00 85 1012.9
20220529093342 61 21 0.0 0.0 0.00 0.01 0.00 85 1012.9
20220529093103 61 21 0.0 0.0 0.00 0.00 0.00 85 1012.8
20220529092349 62 21 0.0 0.0 0.00 0.01 0.00 84 1012.5
20220529091537 62 21 0.0 0.0 0.00 0.00 0.00 83 1012.4
20220529091348 63 21 0.0 0.0 0.00 0.01 0.00 82 1012.3
20220529090347 63 21 0.0 1.0 0.00 0.01 0.00 82 1012.3
20220529090026 63 21 0.0 0.0 0.00 0.00 0.00 81 1012.2
20220529085346 64 21 0.0 0.0 0.00 0.01 0.00 81 1012.1
20220529084542 63 21 0.0 0.0 0.00 0.00 0.00 81 1012.0
20220529084346 64 21 0.0 1.0 0.00 0.01 0.00 81 1011.9
20220529083351 64 21 0.0 1.0 0.00 0.01 0.00 80 1011.9
20220529083043 64 21 0.0 0.0 0.00 0.00 0.00 80 1011.8
20220529082331 65 21 0.0 2.0 0.00 0.01 0.00 80 1012.0
20220529081548 64 19 0.0 0.0 0.00 0.00 0.00 81 1011.8
20220529081334 65 19 0.0 2.0 0.00 0.01 0.00 81 1011.9
20220529080334 65 19 0.0 1.0 0.00 0.01 0.00 81 1011.9
20220529080006 65 19 0.0 0.0 0.00 0.00 0.00 81 1011.5
20220529075353 66 19 0.0 2.0 0.00 0.01 0.00 81 1011.6
20220529074550 66 21 0.0 0.0 0.00 0.00 0.00 80 1011.5
20220529074352 66 20 0.0 1.0 0.00 0.01 0.00 80 1011.6
20220529073335 67 20 0.0 2.0 0.00 0.01 0.00 79 1011.6
20220529073045 66 20 1.0 0.0 0.00 0.00 0.00 79 1011.4
20220529072348 67 28 1.0 3.0 0.00 0.01 0.00 79 1011.5
20220529071512 67 28 1.0 0.0 0.00 0.00 0.00 79 1011.4
20220529071347 67 28 1.0 3.0 0.00 0.01 0.00 79 1011.5
20220529070351 67 27 0.0 3.0 0.00 0.01 0.00 80 1011.5
20220529070013 66 27 1.0 0.0 0.00 0.00 0.00 80 1011.3
20220529065341 66 22 1.0 3.0 0.00 0.01 0.00 81 1011.4
20220529064546 66 21 0.0 0.0 0.00 0.00 0.00 81 1011.3
20220529064342 66 22 0.0 1.0 0.00 0.01 0.00 82 1011.4
20220529063347 66 22 0.0 1.0 0.00 0.01 0.00 82 1011.4
20220529063046 65 22 0.0 0.0 0.00 0.00 0.00 82 1011.3
20220529062346 66 22 0.0 0.0 0.00 0.01 0.00 82 1011.3
20220529061510 66 22 0.0 0.0 0.00 0.00 0.00 81 1011.1
20220529061346 66 22 0.0 0.0 0.00 0.01 0.00 81 1011.2
20220529060348 67 22 0.0 0.0 0.00 0.01 0.00 81 1011.2
20220529060006 66 22 0.0 0.0 0.00 0.00 0.00 81 1010.9
20220529055347 67 22 0.0 1.0 0.00 0.01 0.00 81 1011.1
20220529054547 67 23 0.0 0.0 0.00 0.00 0.00 80 1010.9
20220529054349 67 23 0.0 1.0 0.00 0.01 0.00 80 1011.0
20220529053351 68 23 0.0 2.0 0.00 0.01 0.00 80 1011.0
20220529053039 67 23 1.0 0.0 0.00 0.00 0.00 80 1010.8
20220529052344 68 24 1.0 2.0 0.00 0.02 0.00 80 1011.0
20220529051506 67 23 0.0 0.0 0.00 0.00 0.00 81 1010.8
20220529051348 68 23 0.0 2.0 0.00 0.02 0.00 81 1010.9
20220529050352 68 24 0.0 1.0 0.00 0.02 0.00 81 1010.9
20220529050003 68 24 0.0 0.0 0.00 0.00 0.00 81 1010.7
20220529045332 69 24 0.0 1.0 0.00 0.02 0.00 80 1010.9
20220529044549 68 21 0.0 0.0 0.00 0.00 0.00 80 1010.7
20220529044352 69 21 0.0 3.0 0.00 0.02 0.00 79 1010.7
20220529043336 69 289 1.0 2.0 0.00 0.02 0.00 80 1010.7
20220529043053 68 289 1.0 0.0 0.00 0.00 0.00 80 1010.5
20220529042351 69 26 0.0 2.0 0.00 0.23 0.00 81 1010.4
20220529041521 68 26 0.0 0.0 0.00 0.00 0.00 81 1010.3
20220529041334 69 26 1.0 2.0 0.00 0.23 0.00 82 1010.4
20220529040338 69 26 0.0 0.0 0.00 0.23 0.00 83 1010.4
20220529040055 68 26 0.0 0.0 0.00 0.00 0.02 83 1010.3
20220529035341 69 26 0.0 0.0 0.00 0.23 0.02 83 1010.4
20220529034524 69 26 0.0 0.0 0.00 0.00 0.02 83 1010.2
20220529034344 69 26 0.0 0.0 0.00 0.23 0.02 83 1010.3
20220529033342 69 26 0.0 0.0 0.00 0.23 0.02 82 1010.3
20220529033016 69 26 0.0 0.0 0.00 0.00 0.02 82 1010.1
20220529032341 70 26 0.0 0.0 0.00 0.23 0.02 81 1010.2
20220529031537 69 26 0.0 0.0 0.00 0.00 0.02 81 1010.1
20220529031352 70 26 0.0 0.0 0.00 0.23 0.02 81 1009.9
20220529030335 70 26 0.0 0.0 0.00 0.23 0.02 80 1009.9
20220529030045 69 26 0.0 0.0 0.00 0.00 0.02 80 1009.8
20220529025338 70 26 0.0 0.0 0.00 0.23 0.02 80 1009.8
20220529024502 69 26 0.0 0.0 0.00 0.00 0.02 80 1009.5
20220529024338 70 26 0.0 2.0 0.00 0.23 0.02 79 1009.7
20220529023345 70 28 1.0 4.0 0.00 0.23 0.02 80 1009.7
20220529023046 69 279 1.0 0.0 0.00 0.00 0.02 80 1009.5
20220529022341 69 254 0.0 0.0 0.00 0.23 0.02 81 1009.3
20220529021503 68 254 0.0 0.0 0.00 0.00 0.02 81 1008.8
20220529021341 69 254 0.0 0.0 0.00 0.23 0.02 82 1009.0
20220529020346 68 254 0.0 1.0 0.00 0.23 0.02 83 1009.0
20220529020003 68 254 0.0 0.0 0.00 0.00 0.02 83 1008.7
20220529015345 68 268 0.0 1.0 0.00 0.23 0.02 83 1008.8
20220529014546 68 268 0.0 0.0 0.00 0.00 0.02 84 1008.7
20220529014347 68 268 0.0 1.0 0.00 0.23 0.02 83 1008.7
20220529013347 69 268 0.0 0.0 0.00 0.23 0.02 83 1008.7
20220529013040 68 268 0.0 0.0 0.00 0.00 0.02 83 1008.6
20220529012344 69 268 0.0 0.0 0.00 0.23 0.02 82 1008.3
20220529011509 69 268 0.0 0.0 0.00 0.00 0.02 82 1008.1
20220529011339 69 268 0.0 1.0 0.00 0.23 0.02 81 1008.3
20220529010336 69 269 0.0 0.0 0.00 0.23 0.02 81 1008.3
20220529010059 69 269 0.0 0.0 0.00 0.00 0.02 80 1008.1
20220529005350 69 269 0.0 0.0 0.00 0.23 0.02 80 1008.0
20220529004525 69 269 0.0 0.0 0.00 0.00 0.02 80 1007.6
20220529004348 69 269 0.0 0.0 0.00 0.23 0.02 80 1007.7
20220529003348 70 269 0.0 0.0 0.00 0.23 0.02 78 1007.7
20220529003013 70 269 0.0 0.0 0.00 0.00 0.02 78 1007.3
20220529002349 71 269 0.0 1.0 0.00 0.23 0.02 76 1007.5
20220529001551 72 270 0.0 0.0 0.00 0.00 0.02 74 1007.3
20220529001330 73 270 0.0 1.0 0.00 0.23 0.02 73 1007.3
20220529000334 74 270 0.0 0.0 0.00 0.23 0.02 70 1007.3
20220529000052 74 270 0.0 0.0 0.00 0.00 0.02 69 1007.2
20220528235349 75 270 0.0 1.0 0.00 0.23 0.02 68 1007.2
20220528234520 75 270 0.0 0.0 0.00 0.00 0.02 68 1007.0
20220528234332 76 270 0.0 3.0 0.00 0.23 0.02 67 1007.2
20220528233337 78 271 0.0 3.0 0.00 0.23 0.02 66 1007.2
20220528233007 78 272 0.0 0.0 0.00 0.00 0.02 66 1006.9
20220528232336 79 272 0.0 3.0 0.00 0.23 0.02 65 1007.1
20220528231549 78 272 1.0 0.0 0.00 0.00 0.02 65 1006.9
20220528231340 78 272 0.0 3.0 0.00 0.23 0.02 66 1006.8
20220528230339 78 257 1.0 2.0 0.00 0.23 0.02 65 1006.8
20220528230051 78 255 1.0 0.0 0.00 0.00 0.02 65 1006.6
20220528225338 78 258 1.0 5.0 0.00 0.23 0.02 65 1006.7
20220528224509 77 255 2.0 0.0 0.00 0.00 0.02 66 1006.5
20220528224341 77 255 0.0 5.0 0.00 0.23 0.02 66 1006.6
20220528223347 77 314 3.0 6.0 0.00 0.23 0.02 65 1006.6
20220528223005 77 270 2.0 0.0 0.00 0.00 0.02 65 1006.3
20220528222345 78 286 1.0 4.0 0.00 0.23 0.02 66 1006.4
20220528221547 77 232 1.0 0.0 0.00 0.00 0.02 67 1006.3
20220528221339 77 232 1.0 3.0 0.00 0.23 0.02 67 1006.6
20220528220347 76 254 1.0 6.0 0.00 0.23 0.02 68 1006.6
20220528220045 75 65 1.0 0.0 0.00 0.00 0.02 69 1006.4
20220528215339 75 263 2.0 3.0 0.00 0.23 0.02 69 1006.4
20220528214626 76 256 1.0 0.0 0.00 0.00 0.02 68 1006.3
20220528214338 76 271 1.0 3.0 0.00 0.23 0.02 67 1006.2
20220528213339 78 270 2.0 4.0 0.00 0.23 0.02 66 1006.2
20220528213057 77 216 1.0 0.0 0.00 0.00 0.02 67 1006.1
20220528212334 77 292 2.0 5.0 0.00 0.24 0.02 67 1006.3
20220528211530 77 295 2.0 0.0 0.00 0.00 0.02 67 1006.2
20220528211333 78 299 1.0 4.0 0.00 0.24 0.02 67 1006.2
20220528210339 77 255 1.0 4.0 0.00 0.24 0.02 69 1006.2
20220528210039 76 213 1.0 0.0 0.00 0.00 0.02 71 1006.0
20220528205337 75 157 2.0 3.0 0.00 0.24 0.02 72 1006.0
20220528204600 74 253 1.0 0.0 0.00 0.00 0.02 72 1005.9
20220528204337 74 272 2.0 5.0 0.00 0.24 0.02 70 1005.8
20220528203342 74 255 2.0 3.0 0.00 0.24 0.02 71 1005.8
20220528203104 73 251 2.0 0.0 0.00 0.00 0.02 70 1005.7
20220528202337 74 289 4.0 11.0 0.00 0.35 0.02 69 1006.1
20220528201534 75 319 2.0 0.0 0.00 0.00 0.02 68 1006.0
20220528201336 75 281 1.0 6.0 0.00 0.35 0.02 75 1006.1
20220528200341 75 272 3.0 5.0 0.00 0.35 0.02 69 1006.1
20220528200041 75 280 2.0 0.0 0.00 0.00 0.02 69 1006.0
20220528195336 76 301 3.0 5.0 0.00 0.35 0.02 68 1005.9
20220528194555 76 189 1.0 0.0 0.00 0.00 0.02 73 1005.8
20220528194334 76 191 1.0 4.0 0.00 0.35 0.02 76 1006.0
20220528193335 74 173 1.0 3.0 0.01 0.35 0.02 79 1006.0
20220528193048 73 170 1.0 0.0 0.00 0.00 0.02 79 1005.9
20220528192335 72 237 0.0 3.0 0.01 0.44 0.02 77 1005.7
20220528191526 70 223 1.0 0.0 0.00 0.00 0.02 82 1005.6
20220528191341 70 224 0.0 3.0 0.01 0.44 0.02 85 1005.7
20220528190343 68 279 1.0 3.0 0.01 0.44 0.02 80 1005.7
20220528190023 67 279 1.0 0.0 0.00 0.00 0.02 80 1005.5
20220528185345 68 285 2.0 3.0 0.01 0.44 0.02 79 1005.6
20220528184553 68 286 2.0 0.0 0.00 0.00 0.02 77 1005.5
20220528184341 69 289 1.0 6.0 0.01 0.44 0.02 77 1005.5
20220528183343 72 240 3.0 13.0 0.00 0.43 0.01 70 1005.6
20220528183042 72 260 5.0 0.0 0.00 0.00 0.01 68 1005.5
20220528182340 74 301 7.0 15.0 0.00 0.43 0.01 66 1005.1
20220528181516 74 340 2.0 0.0 0.00 0.00 0.01 66 1004.8
20220528181343 75 299 1.0 6.0 0.00 0.43 0.01 67 1004.9
20220528180348 75 293 1.0 5.0 0.00 0.43 0.01 66 1004.9
20220528180012 74 255 2.0 0.0 0.00 0.00 0.01 67 1004.5
20220528175352 75 291 1.0 5.0 0.00 0.43 0.01 67 1004.6
20220528174553 75 279 3.0 0.0 0.00 0.00 0.01 67 1004.5
20220528174336 76 298 3.0 7.0 0.00 0.43 0.01 64 1004.9
20220528173338 75 168 2.0 12.0 0.00 0.43 0.01 66 1004.9
20220528173054 74 215 3.0 0.0 0.00 0.00 0.01 66 1004.8
20220528172339 74 267 4.0 10.0 0.00 0.43 0.01 67 1005.1
20220528171536 74 299 3.0 0.0 0.00 0.00 0.01 67 1005.0
20220528171342 74 300 3.0 11.0 0.00 0.43 0.01 67 1005.0
20220528170344 75 285 3.0 11.0 0.00 0.43 0.01 67 1005.0
20220528170032 74 308 3.0 0.0 0.00 0.00 0.01 67 1004.9
20220528165345 75 176 2.0 5.0 0.00 0.43 0.01 73 1005.1
20220528164504 73 203 2.0 0.0 0.00 0.00 0.01 72 1005.0
20220528164330 73 201 2.0 11.0 0.00 0.43 0.01 69 1005.2
20220528163352 73 285 2.0 9.0 0.00 0.43 0.01 70 1005.2
20220528163107 73 301 3.0 0.0 0.00 0.00 0.01 71 1005.0
20220528162347 73 275 2.0 7.0 0.00 0.43 0.01 69 1005.1
20220528161545 73 297 3.0 0.0 0.00 0.00 0.01 70 1005.0
20220528161344 74 286 4.0 9.0 0.00 0.43 0.01 71 1004.8
20220528160344 74 163 2.0 5.0 0.00 0.43 0.01 74 1004.8
20220528160028 73 163 2.0 0.0 0.00 0.00 0.01 74 1004.7
20220528155339 74 334 3.0 6.0 0.00 0.43 0.01 74 1004.7
20220528154604 73 286 2.0 0.0 0.00 0.00 0.01 71 1004.5
20220528154340 74 231 2.0 5.0 0.00 0.43 0.01 73 1004.7
20220528153342 73 258 3.0 7.0 0.00 0.43 0.01 74 1004.7
20220528153059 73 233 2.0 0.0 0.00 0.00 0.01 74 1004.6
20220528152342 73 292 5.0 10.0 0.00 0.43 0.01 72 1004.8
20220528151529 72 188 2.0 0.0 0.00 0.00 0.01 77 1004.7
20220528151338 73 298 1.0 5.0 0.00 0.43 0.01 80 1004.9
20220528150341 72 298 2.0 6.0 0.00 0.43 0.01 77 1004.9
20220528150011 72 275 2.0 0.0 0.00 0.00 0.01 79 1004.8
20220528145337 72 267 2.0 6.0 0.00 0.43 0.01 77 1004.9
20220528144601 71 272 2.0 0.0 0.00 0.00 0.01 77 1004.8
20220528144345 72 163 2.0 5.0 0.00 0.43 0.01 80 1005.1
20220528143343 71 168 1.0 5.0 0.00 0.43 0.01 79 1005.1
20220528143053 71 212 2.0 0.0 0.00 0.00 0.01 77 1005.0
20220528142343 71 172 3.0 5.0 0.00 0.43 0.01 80 1005.1
20220528141529 71 179 2.0 0.0 0.00 0.00 0.01 81 1005.0
20220528141338 71 180 1.0 5.0 0.00 0.43 0.01 82 1005.1
20220528140337 71 176 2.0 7.0 0.00 0.43 0.01 83 1005.1
20220528140011 70 201 1.0 0.0 0.00 0.00 0.01 85 1004.8
20220528135350 70 195 2.0 7.0 0.00 0.43 0.01 84 1005.0
20220528134551 69 228 2.0 0.0 0.00 0.00 0.01 86 1004.8
20220528134352 70 312 1.0 5.0 0.00 0.43 0.01 86 1004.9
20220528133333 69 201 1.0 2.0 0.00 0.43 0.01 88 1004.9
20220528133103 68 213 1.0 0.0 0.00 0.00 0.01 88 1004.8
20220528132338 68 241 2.0 4.0 0.00 0.43 0.01 88 1004.8
20220528131509 68 255 1.0 0.0 0.00 0.00 0.01 92 1004.6
20220528131349 69 179 0.0 4.0 0.00 0.43 0.01 92 1004.7
20220528130349 68 233 1.0 3.0 0.00 0.43 0.01 93 1004.7
20220528130007 67 175 1.0 0.0 0.00 0.00 0.01 93 1004.5
20220528125345 67 174 1.0 2.0 0.00 0.43 0.01 94 1004.6
20220528124544 65 174 1.0 0.0 0.00 0.00 0.01 93 1004.5
20220528124345 66 174 0.0 3.0 0.00 0.43 0.01 93 1004.6
20220528123347 66 173 1.0 3.0 0.00 0.43 0.01 93 1004.6
20220528123106 65 166 1.0 0.0 0.00 0.00 0.01 93 1004.5
20220528122345 66 124 0.0 3.0 0.00 0.43 0.01 93 1004.3
20220528121507 65 173 1.0 0.0 0.00 0.00 0.01 93 1004.1
20220528121341 66 173 1.0 7.0 0.00 0.43 0.01 93 1004.2
20220528120346 66 238 1.0 3.0 0.00 0.43 0.01 94 1004.2
20220528120106 65 215 1.0 0.0 0.00 0.00 0.01 94 1004.1
20220528115346 66 165 0.0 3.0 0.00 0.43 0.01 94 1004.2
20220528114531 65 163 1.0 0.0 0.00 0.00 0.01 94 1004.1
20220528114343 65 158 2.0 3.0 0.00 0.43 0.01 94 1004.4
20220528113346 65 184 1.0 4.0 0.00 0.43 0.01 94 1004.4
20220528113025 65 184 1.0 0.0 0.00 0.00 0.01 94 1004.3
20220528112342 65 231 0.0 4.0 0.00 0.43 0.01 94 1004.1